sensor_id;sensor_type;location;lat;lon;timestamp;temperature;humidity
53876;DHT22;39789;53.216;5.624;2022-07-26T00:01:42;18.50;99.90
53876;DHT22;39789;53.216;5.624;2022-07-26T00:04:08;18.70;99.90
53876;DHT22;39789;53.216;5.624;2022-07-26T00:06:34;18.50;99.90
53876;DHT22;39789;53.216;5.624;2022-07-26T00:09:00;18.80;99.90
53876;DHT22;39789;53.216;5.624;2022-07-26T00:11:26;18.40;99.90
53876;DHT22;39789;53.216;5.624;2022-07-26T00:13:53;18.40;99.90
53876;DHT22;39789;53.216;5.624;2022-07-26T00:16:19;18.40;99.90
53876;DHT22;39789;53.216;5.624;2022-07-26T00:18:45;18.40;99.90
53876;DHT22;39789;53.216;5.624;2022-07-26T00:21:12;18.40;99.90
53876;DHT22;39789;53.216;5.624;2022-07-26T00:23:37;18.40;99.90
53876;DHT22;39789;53.216;5.624;2022-07-26T00:26:03;18.30;99.90
53876;DHT22;39789;53.216;5.624;2022-07-26T00:28:29;18.40;99.90
53876;DHT22;39789;53.216;5.624;2022-07-26T00:30:54;18.40;99.90
53876;DHT22;39789;53.216;5.624;2022-07-26T00:33:20;19.10;99.90
53876;DHT22;39789;53.216;5.624;2022-07-26T00:35:46;18.40;99.90
53876;DHT22;39789;53.216;5.624;2022-07-26T00:38:11;18.40;99.90
53876;DHT22;39789;53.216;5.624;2022-07-26T00:40:37;18.40;99.90
53876;DHT22;39789;53.216;5.624;2022-07-26T00:43:03;18.30;99.90
53876;DHT22;39789;53.216;5.624;2022-07-26T00:45:28;18.40;99.90
53876;DHT22;39789;53.216;5.624;2022-07-26T00:47:54;18.40;99.90
53876;DHT22;39789;53.216;5.624;2022-07-26T00:50:20;18.40;99.90
53876;DHT22;39789;53.216;5.624;2022-07-26T00:52:47;18.40;99.90
53876;DHT22;39789;53.216;5.624;2022-07-26T00:55:14;18.30;99.90
53876;DHT22;39789;53.216;5.624;2022-07-26T00:57:41;18.30;99.90
53876;DHT22;39789;53.216;5.624;2022-07-26T01:00:10;18.30;99.90
53876;DHT22;39789;53.216;5.624;2022-07-26T01:02:37;18.30;99.90
53876;DHT22;39789;53.216;5.624;2022-07-26T01:05:03;18.30;99.90
53876;DHT22;39789;53.216;5.624;2022-07-26T01:07:28;18.30;99.90
53876;DHT22;39789;53.216;5.624;2022-07-26T01:09:54;18.30;99.90
53876;DHT22;39789;53.216;5.624;2022-07-26T01:12:20;18.30;99.90
53876;DHT22;39789;53.216;5.624;2022-07-26T01:14:45;18.20;99.90
53876;DHT22;39789;53.216;5.624;2022-07-26T01:17:12;18.20;99.90
53876;DHT22;39789;53.216;5.624;2022-07-26T01:19:39;18.20;99.90
53876;DHT22;39789;53.216;5.624;2022-07-26T01:22:05;18.20;99.90
53876;DHT22;39789;53.216;5.624;2022-07-26T01:24:30;18.20;99.90
53876;DHT22;39789;53.216;5.624;2022-07-26T01:26:56;18.20;99.90
53876;DHT22;39789;53.216;5.624;2022-07-26T01:29:23;18.20;99.90
53876;DHT22;39789;53.216;5.624;2022-07-26T01:31:49;18.10;99.90
53876;DHT22;39789;53.216;5.624;2022-07-26T01:34:14;18.00;99.90
53876;DHT22;39789;53.216;5.624;2022-07-26T01:36:40;17.90;99.90
53876;DHT22;39789;53.216;5.624;2022-07-26T01:39:06;17.80;99.90
53876;DHT22;39789;53.216;5.624;2022-07-26T01:45:13;17.70;99.90
53876;DHT22;39789;53.216;5.624;2022-07-26T01:47:39;17.60;99.90
53876;DHT22;39789;53.216;5.624;2022-07-26T01:50:06;17.60;99.90
53876;DHT22;39789;53.216;5.624;2022-07-26T01:52:32;17.50;99.90
53876;DHT22;39789;53.216;5.624;2022-07-26T01:55:00;17.60;99.90
53876;DHT22;39789;53.216;5.624;2022-07-26T01:57:25;17.50;99.90
53876;DHT22;39789;53.216;5.624;2022-07-26T01:59:51;17.50;99.90
53876;DHT22;39789;53.216;5.624;2022-07-26T02:02:17;17.50;99.90
53876;DHT22;39789;53.216;5.624;2022-07-26T02:04:42;17.50;99.90
53876;DHT22;39789;53.216;5.624;2022-07-26T02:07:36;17.50;99.90
53876;DHT22;39789;53.216;5.624;2022-07-26T02:10:02;17.50;99.90
53876;DHT22;39789;53.216;5.624;2022-07-26T02:12:28;17.40;99.90
53876;DHT22;39789;53.216;5.624;2022-07-26T02:14:54;17.40;99.90
53876;DHT22;39789;53.216;5.624;2022-07-26T02:17:19;17.40;99.90
53876;DHT22;39789;53.216;5.624;2022-07-26T02:19:45;17.40;99.90
53876;DHT22;39789;53.216;5.624;2022-07-26T02:22:11;17.40;99.90
53876;DHT22;39789;53.216;5.624;2022-07-26T02:24:37;17.90;99.90
53876;DHT22;39789;53.216;5.624;2022-07-26T02:27:03;17.50;99.90
53876;DHT22;39789;53.216;5.624;2022-07-26T02:29:29;17.30;99.90
53876;DHT22;39789;53.216;5.624;2022-07-26T02:31:56;17.30;99.90
53876;DHT22;39789;53.216;5.624;2022-07-26T02:34:22;17.20;99.90
53876;DHT22;39789;53.216;5.624;2022-07-26T02:36:48;17.20;99.90
53876;DHT22;39789;53.216;5.624;2022-07-26T02:39:15;17.20;99.90
53876;DHT22;39789;53.216;5.624;2022-07-26T02:41:40;17.20;99.90
53876;DHT22;39789;53.216;5.624;2022-07-26T02:44:07;17.20;99.90
53876;DHT22;39789;53.216;5.624;2022-07-26T02:46:33;17.20;99.90
53876;DHT22;39789;53.216;5.624;2022-07-26T02:48:58;17.20;99.90
53876;DHT22;39789;53.216;5.624;2022-07-26T02:51:25;17.20;99.90
53876;DHT22;39789;53.216;5.624;2022-07-26T02:53:51;17.20;99.90
53876;DHT22;39789;53.216;5.624;2022-07-26T02:56:18;17.20;99.90
53876;DHT22;39789;53.216;5.624;2022-07-26T02:58:44;17.20;99.90
53876;DHT22;39789;53.216;5.624;2022-07-26T03:01:09;17.20;99.90
53876;DHT22;39789;53.216;5.624;2022-07-26T03:03:35;17.20;99.90
53876;DHT22;39789;53.216;5.624;2022-07-26T03:06:01;17.10;99.90
53876;DHT22;39789;53.216;5.624;2022-07-26T03:08:26;17.10;99.90
53876;DHT22;39789;53.216;5.624;2022-07-26T03:10:52;17.10;99.90
53876;DHT22;39789;53.216;5.624;2022-07-26T03:13:17;17.10;99.90
53876;DHT22;39789;53.216;5.624;2022-07-26T03:15:43;17.10;99.90
53876;DHT22;39789;53.216;5.624;2022-07-26T03:18:09;17.00;99.90
53876;DHT22;39789;53.216;5.624;2022-07-26T03:20:34;17.00;99.90
53876;DHT22;39789;53.216;5.624;2022-07-26T03:23:00;17.00;99.90
53876;DHT22;39789;53.216;5.624;2022-07-26T03:25:26;16.90;99.90
53876;DHT22;39789;53.216;5.624;2022-07-26T03:27:54;17.00;99.90
53876;DHT22;39789;53.216;5.624;2022-07-26T03:30:22;16.80;99.90
53876;DHT22;39789;53.216;5.624;2022-07-26T03:32:48;16.10;99.90
53876;DHT22;39789;53.216;5.624;2022-07-26T03:35:13;16.30;99.90
53876;DHT22;39789;53.216;5.624;2022-07-26T03:37:39;16.30;99.90
53876;DHT22;39789;53.216;5.624;2022-07-26T03:40:05;16.70;99.90
53876;DHT22;39789;53.216;5.624;2022-07-26T03:42:32;16.70;99.90
53876;DHT22;39789;53.216;5.624;2022-07-26T03:44:58;16.20;99.90
53876;DHT22;39789;53.216;5.624;2022-07-26T03:47:23;17.10;99.90
53876;DHT22;39789;53.216;5.624;2022-07-26T03:49:49;16.70;99.90
53876;DHT22;39789;53.216;5.624;2022-07-26T03:52:14;16.50;99.90
53876;DHT22;39789;53.216;5.624;2022-07-26T03:54:40;16.70;99.90
53876;DHT22;39789;53.216;5.624;2022-07-26T03:57:06;16.30;99.90
53876;DHT22;39789;53.216;5.624;2022-07-26T03:59:31;16.70;99.90
53876;DHT22;39789;53.216;5.624;2022-07-26T04:01:57;16.80;99.90
53876;DHT22;39789;53.216;5.624;2022-07-26T04:04:22;16.90;99.90
53876;DHT22;39789;53.216;5.624;2022-07-26T04:06:48;16.70;99.90
53876;DHT22;39789;53.216;5.624;2022-07-26T04:09:14;16.40;99.90
53876;DHT22;39789;53.216;5.624;2022-07-26T04:11:41;16.60;99.90
53876;DHT22;39789;53.216;5.624;2022-07-26T04:14:07;16.50;99.90
53876;DHT22;39789;53.216;5.624;2022-07-26T04:16:33;16.40;99.90
53876;DHT22;39789;53.216;5.624;2022-07-26T04:18:58;16.20;99.90
53876;DHT22;39789;53.216;5.624;2022-07-26T04:21:24;16.40;99.90
53876;DHT22;39789;53.216;5.624;2022-07-26T04:23:50;16.40;99.90
53876;DHT22;39789;53.216;5.624;2022-07-26T04:26:16;16.50;99.90
53876;DHT22;39789;53.216;5.624;2022-07-26T04:28:42;16.50;99.90
53876;DHT22;39789;53.216;5.624;2022-07-26T04:31:08;16.70;99.90
53876;DHT22;39789;53.216;5.624;2022-07-26T04:33:34;16.50;99.90
53876;DHT22;39789;53.216;5.624;2022-07-26T04:36:00;16.60;99.90
53876;DHT22;39789;53.216;5.624;2022-07-26T04:38:26;16.50;99.90
53876;DHT22;39789;53.216;5.624;2022-07-26T04:40:52;16.60;99.90
53876;DHT22;39789;53.216;5.624;2022-07-26T04:43:18;16.50;99.90
53876;DHT22;39789;53.216;5.624;2022-07-26T04:45:47;16.50;99.90
53876;DHT22;39789;53.216;5.624;2022-07-26T04:48:13;16.50;99.90
53876;DHT22;39789;53.216;5.624;2022-07-26T04:50:40;16.40;99.90
53876;DHT22;39789;53.216;5.624;2022-07-26T04:53:05;16.40;99.90
53876;DHT22;39789;53.216;5.624;2022-07-26T04:55:31;15.80;99.90
53876;DHT22;39789;53.216;5.624;2022-07-26T04:57:57;16.40;99.90
53876;DHT22;39789;53.216;5.624;2022-07-26T05:00:23;16.20;99.90
53876;DHT22;39789;53.216;5.624;2022-07-26T05:03:07;16.40;99.90
53876;DHT22;39789;53.216;5.624;2022-07-26T05:05:32;16.50;99.90
53876;DHT22;39789;53.216;5.624;2022-07-26T05:08:13;16.90;99.90
53876;DHT22;39789;53.216;5.624;2022-07-26T05:10:40;16.80;99.90
53876;DHT22;39789;53.216;5.624;2022-07-26T05:13:06;16.50;99.90
53876;DHT22;39789;53.216;5.624;2022-07-26T05:15:33;16.50;99.90
53876;DHT22;39789;53.216;5.624;2022-07-26T05:18:06;16.40;99.90
53876;DHT22;39789;53.216;5.624;2022-07-26T05:20:32;16.40;99.90
53876;DHT22;39789;53.216;5.624;2022-07-26T05:22:58;15.70;99.90
53876;DHT22;39789;53.216;5.624;2022-07-26T05:25:24;16.30;99.90
53876;DHT22;39789;53.216;5.624;2022-07-26T05:27:50;15.50;99.90
53876;DHT22;39789;53.216;5.624;2022-07-26T05:30:16;15.60;99.90
53876;DHT22;39789;53.216;5.624;2022-07-26T05:32:41;16.40;99.90
53876;DHT22;39789;53.216;5.624;2022-07-26T05:35:08;16.70;99.90
53876;DHT22;39789;53.216;5.624;2022-07-26T05:37:34;16.50;99.90
53876;DHT22;39789;53.216;5.624;2022-07-26T05:40:00;16.80;99.90
53876;DHT22;39789;53.216;5.624;2022-07-26T05:42:25;16.70;99.90
53876;DHT22;39789;53.216;5.624;2022-07-26T05:44:51;16.80;99.90
53876;DHT22;39789;53.216;5.624;2022-07-26T05:47:17;16.80;99.90
53876;DHT22;39789;53.216;5.624;2022-07-26T05:49:43;17.00;99.90
53876;DHT22;39789;53.216;5.624;2022-07-26T05:52:08;16.80;99.90
53876;DHT22;39789;53.216;5.624;2022-07-26T05:54:34;16.90;99.90
53876;DHT22;39789;53.216;5.624;2022-07-26T05:57:00;16.90;99.90
53876;DHT22;39789;53.216;5.624;2022-07-26T05:59:25;17.00;99.90
53876;DHT22;39789;53.216;5.624;2022-07-26T06:01:51;16.90;99.90
53876;DHT22;39789;53.216;5.624;2022-07-26T06:04:21;17.10;99.90
53876;DHT22;39789;53.216;5.624;2022-07-26T06:06:47;17.00;99.90
53876;DHT22;39789;53.216;5.624;2022-07-26T06:09:12;17.00;99.90
53876;DHT22;39789;53.216;5.624;2022-07-26T06:11:38;17.10;99.90
53876;DHT22;39789;53.216;5.624;2022-07-26T06:14:03;17.00;99.90
53876;DHT22;39789;53.216;5.624;2022-07-26T06:16:29;17.00;99.90
53876;DHT22;39789;53.216;5.624;2022-07-26T06:18:54;17.40;99.90
53876;DHT22;39789;53.216;5.624;2022-07-26T06:21:20;17.00;99.90
53876;DHT22;39789;53.216;5.624;2022-07-26T06:23:46;16.60;99.90
53876;DHT22;39789;53.216;5.624;2022-07-26T06:26:12;17.10;99.90
53876;DHT22;39789;53.216;5.624;2022-07-26T06:28:37;16.30;99.90
53876;DHT22;39789;53.216;5.624;2022-07-26T06:31:04;16.80;99.90
53876;DHT22;39789;53.216;5.624;2022-07-26T06:33:30;16.70;99.90
53876;DHT22;39789;53.216;5.624;2022-07-26T06:35:56;16.50;99.90
53876;DHT22;39789;53.216;5.624;2022-07-26T06:38:21;16.40;99.90
53876;DHT22;39789;53.216;5.624;2022-07-26T06:40:47;16.20;99.90
53876;DHT22;39789;53.216;5.624;2022-07-26T06:43:12;16.10;99.90
53876;DHT22;39789;53.216;5.624;2022-07-26T06:45:38;15.90;99.90
53876;DHT22;39789;53.216;5.624;2022-07-26T06:48:04;16.10;99.90
53876;DHT22;39789;53.216;5.624;2022-07-26T06:50:29;16.20;99.90
53876;DHT22;39789;53.216;5.624;2022-07-26T06:52:55;16.30;99.90
53876;DHT22;39789;53.216;5.624;2022-07-26T06:55:21;16.20;99.90
53876;DHT22;39789;53.216;5.624;2022-07-26T06:57:46;16.40;99.90
53876;DHT22;39789;53.216;5.624;2022-07-26T07:00:12;16.20;99.90
53876;DHT22;39789;53.216;5.624;2022-07-26T07:02:38;16.60;99.90
53876;DHT22;39789;53.216;5.624;2022-07-26T07:05:04;16.70;99.90
53876;DHT22;39789;53.216;5.624;2022-07-26T07:07:29;16.90;99.90
53876;DHT22;39789;53.216;5.624;2022-07-26T07:09:55;16.90;99.90
53876;DHT22;39789;53.216;5.624;2022-07-26T07:12:21;17.00;99.90
53876;DHT22;39789;53.216;5.624;2022-07-26T07:14:46;17.10;99.90
53876;DHT22;39789;53.216;5.624;2022-07-26T07:17:12;17.20;99.90
53876;DHT22;39789;53.216;5.624;2022-07-26T07:19:37;17.00;99.90
53876;DHT22;39789;53.216;5.624;2022-07-26T07:22:04;17.80;99.90
53876;DHT22;39789;53.216;5.624;2022-07-26T07:24:30;16.50;99.90
53876;DHT22;39789;53.216;5.624;2022-07-26T07:26:55;17.40;99.90
53876;DHT22;39789;53.216;5.624;2022-07-26T07:29:21;17.50;99.90
53876;DHT22;39789;53.216;5.624;2022-07-26T07:31:47;18.70;99.90
53876;DHT22;39789;53.216;5.624;2022-07-26T07:34:14;18.10;99.90
53876;DHT22;39789;53.216;5.624;2022-07-26T07:36:40;17.30;99.90
53876;DHT22;39789;53.216;5.624;2022-07-26T07:39:05;17.50;99.90
53876;DHT22;39789;53.216;5.624;2022-07-26T07:41:31;17.50;99.90
53876;DHT22;39789;53.216;5.624;2022-07-26T07:43:59;17.40;99.90
53876;DHT22;39789;53.216;5.624;2022-07-26T07:46:25;17.70;99.90
53876;DHT22;39789;53.216;5.624;2022-07-26T07:48:59;17.80;99.90
53876;DHT22;39789;53.216;5.624;2022-07-26T07:51:25;17.60;99.90
53876;DHT22;39789;53.216;5.624;2022-07-26T07:53:51;17.90;99.90
53876;DHT22;39789;53.216;5.624;2022-07-26T07:56:17;19.00;99.90
53876;DHT22;39789;53.216;5.624;2022-07-26T07:58:42;17.90;99.90
53876;DHT22;39789;53.216;5.624;2022-07-26T08:01:08;17.80;99.90
53876;DHT22;39789;53.216;5.624;2022-07-26T08:03:34;17.40;99.90
53876;DHT22;39789;53.216;5.624;2022-07-26T08:06:00;17.60;99.90
53876;DHT22;39789;53.216;5.624;2022-07-26T08:08:26;18.70;99.90
53876;DHT22;39789;53.216;5.624;2022-07-26T08:10:52;17.30;99.90
53876;DHT22;39789;53.216;5.624;2022-07-26T08:13:19;17.20;99.90
53876;DHT22;39789;53.216;5.624;2022-07-26T08:15:45;17.10;99.90
53876;DHT22;39789;53.216;5.624;2022-07-26T08:18:11;17.10;99.90
53876;DHT22;39789;53.216;5.624;2022-07-26T08:20:36;17.10;99.90
53876;DHT22;39789;53.216;5.624;2022-07-26T08:23:02;17.30;99.90
53876;DHT22;39789;53.216;5.624;2022-07-26T08:25:28;17.50;99.90
53876;DHT22;39789;53.216;5.624;2022-07-26T08:27:53;17.50;99.90
53876;DHT22;39789;53.216;5.624;2022-07-26T08:30:19;18.10;99.90
53876;DHT22;39789;53.216;5.624;2022-07-26T08:32:44;16.90;99.90
53876;DHT22;39789;53.216;5.624;2022-07-26T08:35:10;18.80;99.90
53876;DHT22;39789;53.216;5.624;2022-07-26T08:37:43;17.60;99.90
53876;DHT22;39789;53.216;5.624;2022-07-26T08:40:09;17.50;99.90
53876;DHT22;39789;53.216;5.624;2022-07-26T08:42:34;17.50;99.90
53876;DHT22;39789;53.216;5.624;2022-07-26T08:45:00;17.50;99.90
53876;DHT22;39789;53.216;5.624;2022-07-26T08:47:26;17.50;99.90
53876;DHT22;39789;53.216;5.624;2022-07-26T08:49:52;17.50;99.90
53876;DHT22;39789;53.216;5.624;2022-07-26T08:52:17;17.50;99.90
53876;DHT22;39789;53.216;5.624;2022-07-26T08:54:44;17.60;99.90
53876;DHT22;39789;53.216;5.624;2022-07-26T08:57:11;19.00;99.90
53876;DHT22;39789;53.216;5.624;2022-07-26T08:59:37;17.70;99.90
53876;DHT22;39789;53.216;5.624;2022-07-26T09:02:35;17.90;99.90
53876;DHT22;39789;53.216;5.624;2022-07-26T09:05:03;18.00;99.90
53876;DHT22;39789;53.216;5.624;2022-07-26T09:07:32;18.10;99.90
53876;DHT22;39789;53.216;5.624;2022-07-26T09:10:00;18.20;99.90
53876;DHT22;39789;53.216;5.624;2022-07-26T09:12:28;18.10;99.90
53876;DHT22;39789;53.216;5.624;2022-07-26T09:14:55;18.10;99.90
53876;DHT22;39789;53.216;5.624;2022-07-26T09:17:23;17.40;99.90
53876;DHT22;39789;53.216;5.624;2022-07-26T09:23:07;18.00;99.90
53876;DHT22;39789;53.216;5.624;2022-07-26T09:25:38;18.20;99.90
53876;DHT22;39789;53.216;5.624;2022-07-26T09:28:21;18.40;99.90
53876;DHT22;39789;53.216;5.624;2022-07-26T09:30:55;18.50;99.90
53876;DHT22;39789;53.216;5.624;2022-07-26T09:33:21;18.20;99.90
53876;DHT22;39789;53.216;5.624;2022-07-26T09:36:06;18.90;99.90
53876;DHT22;39789;53.216;5.624;2022-07-26T09:41:48;18.20;99.90
53876;DHT22;39789;53.216;5.624;2022-07-26T09:44:27;19.10;99.90
53876;DHT22;39789;53.216;5.624;2022-07-26T09:46:55;19.10;99.90
53876;DHT22;39789;53.216;5.624;2022-07-26T09:49:22;18.40;99.90
53876;DHT22;39789;53.216;5.624;2022-07-26T09:51:52;19.20;99.90
53876;DHT22;39789;53.216;5.624;2022-07-26T09:54:32;19.30;99.90
53876;DHT22;39789;53.216;5.624;2022-07-26T09:56:58;18.90;99.90
53876;DHT22;39789;53.216;5.624;2022-07-26T09:59:25;20.10;99.90
53876;DHT22;39789;53.216;5.624;2022-07-26T10:01:54;18.70;99.90
53876;DHT22;39789;53.216;5.624;2022-07-26T10:04:30;19.50;99.90
53876;DHT22;39789;53.216;5.624;2022-07-26T10:06:56;19.80;99.90
53876;DHT22;39789;53.216;5.624;2022-07-26T10:09:47;20.00;99.90
53876;DHT22;39789;53.216;5.624;2022-07-26T10:12:15;19.80;99.90
53876;DHT22;39789;53.216;5.624;2022-07-26T10:14:46;19.90;99.90
53876;DHT22;39789;53.216;5.624;2022-07-26T10:19:59;19.80;99.90
53876;DHT22;39789;53.216;5.624;2022-07-26T10:22:27;20.80;99.90
53876;DHT22;39789;53.216;5.624;2022-07-26T10:27:43;20.40;99.90
53876;DHT22;39789;53.216;5.624;2022-07-26T10:33:05;19.70;99.70
53876;DHT22;39789;53.216;5.624;2022-07-26T10:38:08;19.70;99.90
53876;DHT22;39789;53.216;5.624;2022-07-26T10:40:35;18.90;99.90
53876;DHT22;39789;53.216;5.624;2022-07-26T10:43:11;19.60;99.90
53876;DHT22;39789;53.216;5.624;2022-07-26T10:45:37;19.50;99.90
53876;DHT22;39789;53.216;5.624;2022-07-26T10:50:40;19.60;99.90
53876;DHT22;39789;53.216;5.624;2022-07-26T10:53:08;19.60;99.90
53876;DHT22;39789;53.216;5.624;2022-07-26T10:55:45;18.70;99.90
53876;DHT22;39789;53.216;5.624;2022-07-26T10:58:11;19.50;99.90
53876;DHT22;39789;53.216;5.624;2022-07-26T11:00:37;19.50;99.90
53876;DHT22;39789;53.216;5.624;2022-07-26T11:03:03;19.60;99.90
53876;DHT22;39789;53.216;5.624;2022-07-26T11:05:30;21.00;99.90
53876;DHT22;39789;53.216;5.624;2022-07-26T11:07:57;21.30;99.90
53876;DHT22;39789;53.216;5.624;2022-07-26T11:10:47;20.60;99.90
53876;DHT22;39789;53.216;5.624;2022-07-26T11:13:16;19.70;99.90
53876;DHT22;39789;53.216;5.624;2022-07-26T11:15:50;20.10;99.90
53876;DHT22;39789;53.216;5.624;2022-07-26T11:18:24;18.50;99.90
53876;DHT22;39789;53.216;5.624;2022-07-26T11:20:54;19.20;99.90
53876;DHT22;39789;53.216;5.624;2022-07-26T11:23:26;21.00;99.90
53876;DHT22;39789;53.216;5.624;2022-07-26T11:26:07;21.30;99.90
53876;DHT22;39789;53.216;5.624;2022-07-26T11:28:49;19.70;99.90
53876;DHT22;39789;53.216;5.624;2022-07-26T11:31:21;19.80;99.90
53876;DHT22;39789;53.216;5.624;2022-07-26T11:33:49;19.50;99.90
53876;DHT22;39789;53.216;5.624;2022-07-26T11:36:16;20.40;99.90
53876;DHT22;39789;53.216;5.624;2022-07-26T11:38:51;19.60;99.90
53876;DHT22;39789;53.216;5.624;2022-07-26T11:41:26;20.20;99.90
53876;DHT22;39789;53.216;5.624;2022-07-26T11:43:53;20.00;99.90
53876;DHT22;39789;53.216;5.624;2022-07-26T11:46:21;20.30;99.90
53876;DHT22;39789;53.216;5.624;2022-07-26T11:48:51;20.20;99.90
53876;DHT22;39789;53.216;5.624;2022-07-26T11:51:21;20.20;99.90
53876;DHT22;39789;53.216;5.624;2022-07-26T11:53:48;20.10;99.90
53876;DHT22;39789;53.216;5.624;2022-07-26T11:56:19;19.90;99.90
53876;DHT22;39789;53.216;5.624;2022-07-26T11:58:47;20.40;99.30
53876;DHT22;39789;53.216;5.624;2022-07-26T12:01:15;20.40;99.10
53876;DHT22;39789;53.216;5.624;2022-07-26T12:03:43;20.20;99.00
53876;DHT22;39789;53.216;5.624;2022-07-26T12:06:12;20.20;98.90
53876;DHT22;39789;53.216;5.624;2022-07-26T12:11:04;20.00;98.50
53876;DHT22;39789;53.216;5.624;2022-07-26T12:13:30;20.90;98.80
53876;DHT22;39789;53.216;5.624;2022-07-26T12:15:55;19.90;98.80
53876;DHT22;39789;53.216;5.624;2022-07-26T12:18:26;20.10;98.50
53876;DHT22;39789;53.216;5.624;2022-07-26T12:21:04;20.00;98.40
53876;DHT22;39789;53.216;5.624;2022-07-26T12:23:48;19.90;97.80
53876;DHT22;39789;53.216;5.624;2022-07-26T12:28:43;19.80;96.90
53876;DHT22;39789;53.216;5.624;2022-07-26T12:31:38;19.90;98.10
53876;DHT22;39789;53.216;5.624;2022-07-26T12:34:04;19.90;97.10
53876;DHT22;39789;53.216;5.624;2022-07-26T12:36:32;20.00;97.40
53876;DHT22;39789;53.216;5.624;2022-07-26T12:38:58;20.30;97.10
53876;DHT22;39789;53.216;5.624;2022-07-26T12:41:34;19.20;96.30
53876;DHT22;39789;53.216;5.624;2022-07-26T12:44:01;20.00;96.10
53876;DHT22;39789;53.216;5.624;2022-07-26T12:46:29;20.70;96.20
53876;DHT22;39789;53.216;5.624;2022-07-26T12:48:55;20.30;96.60
53876;DHT22;39789;53.216;5.624;2022-07-26T12:51:21;20.20;96.20
53876;DHT22;39789;53.216;5.624;2022-07-26T12:53:46;19.30;96.30
53876;DHT22;39789;53.216;5.624;2022-07-26T12:56:12;20.30;96.40
53876;DHT22;39789;53.216;5.624;2022-07-26T12:58:38;20.20;96.70
53876;DHT22;39789;53.216;5.624;2022-07-26T13:01:03;21.50;97.30
53876;DHT22;39789;53.216;5.624;2022-07-26T13:03:36;20.20;96.90
53876;DHT22;39789;53.216;5.624;2022-07-26T13:06:02;20.00;97.00
53876;DHT22;39789;53.216;5.624;2022-07-26T13:08:28;20.10;97.40
53876;DHT22;39789;53.216;5.624;2022-07-26T13:10:54;18.80;97.30
53876;DHT22;39789;53.216;5.624;2022-07-26T13:13:20;21.30;97.90
53876;DHT22;39789;53.216;5.624;2022-07-26T13:15:45;18.90;97.00
53876;DHT22;39789;53.216;5.624;2022-07-26T13:18:12;20.00;96.90
53876;DHT22;39789;53.216;5.624;2022-07-26T13:20:38;20.80;97.10
53876;DHT22;39789;53.216;5.624;2022-07-26T13:23:04;19.00;96.60
53876;DHT22;39789;53.216;5.624;2022-07-26T13:25:30;18.90;96.40
53876;DHT22;39789;53.216;5.624;2022-07-26T13:27:56;19.80;96.70
53876;DHT22;39789;53.216;5.624;2022-07-26T13:30:21;19.00;96.20
53876;DHT22;39789;53.216;5.624;2022-07-26T13:32:47;18.40;96.50
53876;DHT22;39789;53.216;5.624;2022-07-26T13:35:13;19.80;97.40
53876;DHT22;39789;53.216;5.624;2022-07-26T13:37:38;20.00;97.30
53876;DHT22;39789;53.216;5.624;2022-07-26T13:40:05;22.10;97.70
53876;DHT22;39789;53.216;5.624;2022-07-26T13:42:31;20.20;97.00
53876;DHT22;39789;53.216;5.624;2022-07-26T13:44:57;21.50;97.70
53876;DHT22;39789;53.216;5.624;2022-07-26T13:47:22;20.20;97.20
53876;DHT22;39789;53.216;5.624;2022-07-26T13:49:48;20.30;97.00
53876;DHT22;39789;53.216;5.624;2022-07-26T13:52:14;20.60;97.10
53876;DHT22;39789;53.216;5.624;2022-07-26T13:54:41;21.40;97.90
53876;DHT22;39789;53.216;5.624;2022-07-26T13:57:07;20.00;97.70
53876;DHT22;39789;53.216;5.624;2022-07-26T13:59:33;20.00;97.90
53876;DHT22;39789;53.216;5.624;2022-07-26T14:02:00;20.10;97.70
53876;DHT22;39789;53.216;5.624;2022-07-26T14:04:26;20.40;98.00
53876;DHT22;39789;53.216;5.624;2022-07-26T14:06:52;21.70;97.90
53876;DHT22;39789;53.216;5.624;2022-07-26T14:09:19;21.70;98.10
53876;DHT22;39789;53.216;5.624;2022-07-26T14:11:45;22.30;98.10
53876;DHT22;39789;53.216;5.624;2022-07-26T14:14:12;20.30;97.60
53876;DHT22;39789;53.216;5.624;2022-07-26T14:16:38;21.10;98.40
53876;DHT22;39789;53.216;5.624;2022-07-26T14:19:04;20.10;98.60
53876;DHT22;39789;53.216;5.624;2022-07-26T14:21:31;19.30;98.50
53876;DHT22;39789;53.216;5.624;2022-07-26T14:23:58;19.10;98.30
53876;DHT22;39789;53.216;5.624;2022-07-26T14:26:25;19.60;98.70
53876;DHT22;39789;53.216;5.624;2022-07-26T14:28:51;19.50;98.80
53876;DHT22;39789;53.216;5.624;2022-07-26T14:31:17;20.20;99.00
53876;DHT22;39789;53.216;5.624;2022-07-26T14:33:44;19.40;99.10
53876;DHT22;39789;53.216;5.624;2022-07-26T14:36:09;19.40;99.40
53876;DHT22;39789;53.216;5.624;2022-07-26T14:38:38;19.40;99.30
53876;DHT22;39789;53.216;5.624;2022-07-26T14:41:05;19.20;99.80
53876;DHT22;39789;53.216;5.624;2022-07-26T14:43:30;19.10;99.90
53876;DHT22;39789;53.216;5.624;2022-07-26T14:45:56;19.40;99.90
53876;DHT22;39789;53.216;5.624;2022-07-26T14:48:21;18.90;99.90
53876;DHT22;39789;53.216;5.624;2022-07-26T14:50:47;19.10;99.90
53876;DHT22;39789;53.216;5.624;2022-07-26T14:53:14;19.70;99.90
53876;DHT22;39789;53.216;5.624;2022-07-26T14:55:40;18.80;99.90
53876;DHT22;39789;53.216;5.624;2022-07-26T14:58:06;18.90;99.90
53876;DHT22;39789;53.216;5.624;2022-07-26T15:00:31;19.20;99.90
53876;DHT22;39789;53.216;5.624;2022-07-26T15:02:57;19.10;99.90
53876;DHT22;39789;53.216;5.624;2022-07-26T15:05:23;19.00;99.90
53876;DHT22;39789;53.216;5.624;2022-07-26T15:07:51;18.90;99.90
53876;DHT22;39789;53.216;5.624;2022-07-26T15:10:17;18.80;99.90
53876;DHT22;39789;53.216;5.624;2022-07-26T15:12:42;18.70;99.90
53876;DHT22;39789;53.216;5.624;2022-07-26T15:15:09;18.70;99.90
53876;DHT22;39789;53.216;5.624;2022-07-26T15:17:35;18.70;99.90
53876;DHT22;39789;53.216;5.624;2022-07-26T15:20:02;18.70;99.90
53876;DHT22;39789;53.216;5.624;2022-07-26T15:22:28;18.70;99.90
53876;DHT22;39789;53.216;5.624;2022-07-26T15:24:53;18.90;99.90
53876;DHT22;39789;53.216;5.624;2022-07-26T15:27:19;19.10;99.90
53876;DHT22;39789;53.216;5.624;2022-07-26T15:29:45;19.20;99.90
53876;DHT22;39789;53.216;5.624;2022-07-26T15:32:13;20.00;99.90
53876;DHT22;39789;53.216;5.624;2022-07-26T15:34:38;19.40;99.90
53876;DHT22;39789;53.216;5.624;2022-07-26T15:37:04;19.50;99.90
53876;DHT22;39789;53.216;5.624;2022-07-26T15:39:29;19.50;99.90
53876;DHT22;39789;53.216;5.624;2022-07-26T15:41:55;19.60;99.90
53876;DHT22;39789;53.216;5.624;2022-07-26T15:44:21;19.50;99.90
53876;DHT22;39789;53.216;5.624;2022-07-26T15:46:47;19.40;99.90
53876;DHT22;39789;53.216;5.624;2022-07-26T15:49:14;19.50;99.90
53876;DHT22;39789;53.216;5.624;2022-07-26T15:51:41;19.40;99.80
53876;DHT22;39789;53.216;5.624;2022-07-26T15:54:25;19.40;99.80
53876;DHT22;39789;53.216;5.624;2022-07-26T15:56:51;19.50;99.90
53876;DHT22;39789;53.216;5.624;2022-07-26T15:59:16;20.00;99.90